Guadalupe Pass, Texas
Current Conditions -  °F | °C
As of 9:51 PM on Thursday 18 Dec 2014 (Local Time) from KGDP Reporting Station
Light Rain Light Rain  
Wind Chill: 30°   Ceiling: 6000
Heat Index: 40°   Visibility: 9mi
Dew Point: 36°   Wind: 23mph
Humidity: 86%   Direction: 260°W
Pressure: 30.14"   Gusts: 36mph
Location:  31.83°N, 104.8°W
Report Text: KGDP 190351Z AUTO 26020G31KT 9SM -RA SCT042 OVC060 04/02 A3014 RMK AO2 PK WND 26035/0327 RAB13 SLP191 P0000 T00440022
Loading
Personal Weather Stations






























Interactive Weather Map New forecast layout! Learn more

10-Day Weather Forecast

Advertisements
Track Severe Weather on mobile